Time;durP1;ratioP1;P1;durP2;ratioP2;P2;SDS_P1;SDS_P2;PMS_P1;PMS_P2;Temp;Humidity;BMP_temperature;BMP_pressure;BME280_temperature;BME280_humidity;BME280_pressure;Samples;Min_cycle;Max_cycle;Signal;HPM_P1;HPM_P2
2021/07/22 00:00:32;;;;;;;9.20;7.20;;;;;;;15.52;68.35;101823.27;1804452;79;21058;-84
2021/07/22 00:03:01;;;;;;;8.05;6.17;;;;;;;15.50;68.37;101819.69;1804077;79;21018;-84
2021/07/22 00:05:27;;;;;;;10.08;6.67;;;;;;;15.47;68.44;101827.56;1804507;79;21007;-84
2021/07/22 00:08:01;;;;;;;11.25;6.85;;;;;;;15.45;68.52;101819.13;1804431;79;21885;-84
2021/07/22 00:10:28;;;;;;;10.38;7.33;;;;;;;15.43;68.63;101820.81;1779207;79;20967;-84
2021/07/22 00:12:54;;;;;;;12.25;7.00;;;;;;;15.38;68.63;101822.05;1768444;79;21146;-84
2021/07/22 00:15:21;;;;;;;10.98;7.50;;;;;;;15.36;68.71;101823.34;1776884;80;21429;-84
2021/07/22 00:17:48;;;;;;;10.63;7.03;;;;;;;15.30;68.78;101824.54;1779023;80;21046;-84
2021/07/22 00:20:15;;;;;;;12.37;7.85;;;;;;;15.25;68.86;101822.20;1778789;80;21201;-84
2021/07/22 00:22:42;;;;;;;10.40;7.12;;;;;;;15.19;68.99;101826.05;1817195;78;21048;-83
2021/07/22 00:25:09;;;;;;;11.25;7.65;;;;;;;15.17;69.06;101822.47;1820490;77;21566;-84
2021/07/22 00:27:36;;;;;;;17.60;10.45;;;;;;;15.13;69.06;101828.12;1817566;77;21178;-84
2021/07/22 00:30:03;;;;;;;13.85;8.73;;;;;;;15.09;69.11;101826.67;1815633;79;21029;-84
2021/07/22 00:32:30;;;;;;;16.70;7.80;;;;;;;15.03;69.14;101826.54;1815718;79;21690;-84
2021/07/22 00:34:57;;;;;;;19.10;9.60;;;;;;;14.99;69.23;101828.66;1815762;79;20986;-84
2021/07/22 00:37:23;;;;;;;15.75;8.48;;;;;;;14.93;69.31;101822.34;1815784;79;21017;-84
2021/07/22 00:39:50;;;;;;;14.00;8.65;;;;;;;14.90;69.45;101825.34;1815769;79;21115;-84
2021/07/22 00:42:17;;;;;;;14.83;8.15;;;;;;;14.86;69.47;101828.34;1815610;79;21708;-84
2021/07/22 00:44:44;;;;;;;12.93;7.80;;;;;;;14.82;69.56;101829.57;1815707;79;21766;-84
2021/07/22 00:47:10;;;;;;;14.30;7.60;;;;;;;14.79;69.61;101829.08;1815664;77;21115;-84
2021/07/22 00:49:37;;;;;;;12.28;7.70;;;;;;;14.76;69.75;101828.98;1815780;79;20974;-84
2021/07/22 00:52:04;;;;;;;9.98;7.17;;;;;;;14.73;69.73;101826.25;1815764;79;21494;-84
2021/07/22 00:54:31;;;;;;;14.07;7.12;;;;;;;14.70;69.85;101826.19;1815855;76;21006;-84
2021/07/22 00:56:57;;;;;;;11.28;7.10;;;;;;;14.66;69.91;101830.92;1815778;79;21793;-84
2021/07/22 00:59:24;;;;;;;14.65;6.97;;;;;;;14.66;70.08;101834.89;1815670;79;20994;-84
2021/07/22 01:01:51;;;;;;;14.40;6.97;;;;;;;14.64;70.11;101829.98;1815683;79;21723;-84
2021/07/22 01:04:20;;;;;;;8.48;6.03;;;;;;;14.62;70.24;101822.43;1815618;77;20990;-84
2021/07/22 01:06:47;;;;;;;12.35;6.72;;;;;;;14.61;70.33;101827.28;1815596;78;21014;-84
2021/07/22 01:09:13;;;;;;;11.83;6.35;;;;;;;14.59;70.49;101827.23;1815578;79;21738;-84
2021/07/22 01:11:40;;;;;;;9.55;6.78;;;;;;;14.57;70.59;101820.56;1815631;79;21068;-84
2021/07/22 01:14:07;;;;;;;11.90;6.53;;;;;;;14.56;70.70;101832.00;1815848;77;20986;-84
2021/07/22 01:16:34;;;;;;;11.30;6.35;;;;;;;14.58;70.87;101818.80;1815573;79;21025;-84
2021/07/22 01:19:01;;;;;;;9.85;6.90;;;;;;;14.59;70.94;101823.27;1815702;79;21538;-85
2021/07/22 01:21:27;;;;;;;8.33;5.90;;;;;;;14.60;71.03;101822.83;1815931;79;21772;-85
2021/07/22 01:23:55;;;;;;;7.85;5.37;;;;;;;14.60;71.15;101819.73;1815534;79;21048;-85
2021/07/22 01:26:22;;;;;;;8.35;6.22;;;;;;;14.60;71.11;101809.14;1815801;77;21037;-85
2021/07/22 01:28:48;;;;;;;10.50;7.05;;;;;;;14.60;71.22;101805.16;1815851;76;21002;-84
2021/07/22 01:31:15;;;;;;;13.35;6.55;;;;;;;14.61;71.31;101813.59;1815804;79;21014;-84
2021/07/22 01:33:42;;;;;;;10.95;6.67;;;;;;;14.59;71.37;101806.04;1815765;78;22564;-84
2021/07/22 01:36:09;;;;;;;9.98;6.35;;;;;;;14.58;71.46;101802.50;1815751;79;20979;-84
2021/07/22 01:38:36;;;;;;;11.63;6.50;;;;;;;14.57;71.44;101802.45;1815996;77;21002;-84
2021/07/22 01:41:04;;;;;;;11.00;6.72;;;;;;;14.57;71.57;101807.31;1815773;77;21073;-84
2021/07/22 01:43:31;;;;;;;9.80;5.85;;;;;;;14.55;71.58;101805.03;1815751;76;21057;-84
2021/07/22 01:45:57;;;;;;;12.33;6.60;;;;;;;14.55;71.69;101809.44;1815403;76;21735;-84
2021/07/22 01:48:25;;;;;;;6.58;5.50;;;;;;;14.56;71.77;101801.53;1786793;79;39588;-84
2021/07/22 01:50:52;;;;;;;13.15;5.65;;;;;;;14.56;71.91;101798.89;1815476;79;21452;-84
2021/07/22 01:53:19;;;;;;;7.37;5.58;;;;;;;14.56;71.97;101803.27;1815784;79;21472;-84
2021/07/22 01:55:46;;;;;;;9.65;5.80;;;;;;;14.53;72.04;101797.47;1815778;77;21002;-84
2021/07/22 01:58:13;;;;;;;8.35;6.47;;;;;;;14.53;72.14;101793.50;1815727;79;21747;-84
2021/07/22 02:00:40;;;;;;;11.30;5.83;;;;;;;14.53;72.18;101802.77;1815645;79;21065;-84
2021/07/22 02:03:07;;;;;;;7.55;5.62;;;;;;;14.52;72.21;101802.72;1815869;78;21002;-84
2021/07/22 02:05:33;;;;;;;9.93;6.05;;;;;;;14.51;72.25;101809.78;1815891;77;21535;-84
2021/07/22 02:08:00;;;;;;;9.53;6.37;;;;;;;14.52;72.26;101814.64;1815533;79;21036;-84
2021/07/22 02:10:27;;;;;;;7.87;5.83;;;;;;;14.50;72.34;101808.41;1815823;78;21734;-87
2021/07/22 02:12:54;;;;;;;10.00;5.58;;;;;;;14.51;72.41;101811.11;1815852;79;21096;-86
2021/07/22 02:15:20;;;;;;;9.15;6.08;;;;;;;14.50;72.39;101815.92;1815894;76;21506;-86
2021/07/22 02:17:47;;;;;;;7.25;5.87;;;;;;;14.49;72.45;101818.12;1815912;78;21147;-86
2021/07/22 02:20:14;;;;;;;8.55;6.05;;;;;;;14.47;72.56;101817.19;1815972;79;21009;-86
2021/07/22 02:22:40;;;;;;;9.58;5.80;;;;;;;14.46;72.62;101814.50;1815790;77;21737;-86
2021/07/22 02:25:08;;;;;;;7.83;5.90;;;;;;;14.48;72.69;101824.70;1815980;77;20980;-87
2021/07/22 02:27:35;;;;;;;8.43;5.78;;;;;;;14.48;72.76;101822.05;1816064;78;21021;-84
2021/07/22 02:30:05;;;;;;;9.53;5.78;;;;;;;14.49;72.74;101828.72;1815796;78;21005;-84
2021/07/22 02:32:31;;;;;;;7.90;5.92;;;;;;;14.49;72.78;101828.72;1815670;79;21221;-84
2021/07/22 02:34:58;;;;;;;9.28;5.97;;;;;;;14.50;72.82;101828.28;1815888;79;21736;-84
2021/07/22 02:37:25;;;;;;;7.92;5.50;;;;;;;14.52;72.85;101834.52;1815575;79;20998;-84
2021/07/22 02:39:52;;;;;;;10.43;5.42;;;;;;;14.52;72.86;101833.19;1815664;76;21069;-84
2021/07/22 02:42:18;;;;;;;10.60;6.03;;;;;;;14.52;72.89;101830.11;1815802;77;20994;-84
2021/07/22 02:44:45;;;;;;;6.83;5.37;;;;;;;14.53;72.90;101831.02;1815492;76;21081;-85
2021/07/22 02:47:12;;;;;;;11.00;6.67;;;;;;;14.56;72.93;101835.06;1815547;77;21214;-84
2021/07/22 02:49:39;;;;;;;9.35;6.05;;;;;;;14.57;72.91;101833.81;1815370;78;21029;-84
2021/07/22 02:52:07;;;;;;;7.70;5.67;;;;;;;14.60;72.90;101834.31;1817701;77;20958;-85
2021/07/22 02:54:35;;;;;;;10.38;6.37;;;;;;;14.64;72.94;101836.61;1815530;77;21010;-84
2021/07/22 02:57:02;;;;;;;7.90;5.87;;;;;;;14.67;72.92;101838.03;1815418;79;21080;-84
2021/07/22 02:59:28;;;;;;;8.50;5.55;;;;;;;14.70;72.83;101835.47;1815410;78;21736;-85
2021/07/22 03:01:55;;;;;;;8.43;5.97;;;;;;;14.71;72.86;101838.56;1815435;79;21113;-84
2021/07/22 03:04:22;;;;;;;7.25;5.65;;;;;;;14.76;72.88;101828.98;1815444;77;21069;-85
2021/07/22 03:06:48;;;;;;;8.95;5.65;;;;;;;14.81;72.83;101836.63;1815305;76;21029;-84
2021/07/22 03:09:15;;;;;;;7.85;5.92;;;;;;;14.87;72.81;101834.56;1815674;78;21689;-84
2021/07/22 03:11:42;;;;;;;11.33;5.40;;;;;;;14.93;72.76;101832.05;1815678;79;21728;-85
2021/07/22 03:14:08;;;;;;;10.20;6.00;;;;;;;14.99;72.72;101832.20;1815644;79;21010;-84
2021/07/22 03:16:35;;;;;;;7.20;5.75;;;;;;;15.05;72.67;101838.08;1815869;77;21502;-84
2021/07/22 03:19:02;;;;;;;11.53;6.97;;;;;;;15.13;72.65;101835.20;1815623;79;21165;-84
2021/07/22 03:21:28;;;;;;;8.25;5.67;;;;;;;15.22;72.57;101839.80;1815797;79;20982;-84
2021/07/22 03:23:55;;;;;;;9.35;6.25;;;;;;;15.32;72.49;101840.05;1815708;78;22558;-85
2021/07/22 03:26:22;;;;;;;9.15;5.97;;;;;;;15.41;72.40;101834.08;1815753;79;21694;-84
2021/07/22 03:28:49;;;;;;;6.97;6.25;;;;;;;15.53;72.28;101834.77;1815982;76;21484;-84
2021/07/22 03:31:15;;;;;;;8.53;7.10;;;;;;;15.63;72.13;101837.19;1815672;78;21072;-84
2021/07/22 03:33:42;;;;;;;6.92;5.30;;;;;;;15.76;72.09;101841.03;1815659;79;21053;-85
2021/07/22 03:36:09;;;;;;;10.72;6.20;;;;;;;15.90;71.95;101845.77;1815912;79;21738;-84
2021/07/22 03:38:36;;;;;;;6.85;5.90;;;;;;;16.06;71.72;101846.08;1815768;78;20986;-84
2021/07/22 03:41:02;;;;;;;10.88;6.33;;;;;;;16.22;71.57;101844.63;1815782;79;21093;-84
2021/07/22 03:43:29;;;;;;;6.87;5.62;;;;;;;16.45;71.62;101844.61;1815856;79;20974;-84
2021/07/22 03:45:59;;;;;;;12.40;5.87;;;;;;;17.02;71.97;101839.40;1815660;79;21080;-84
2021/07/22 03:48:26;;;;;;;11.28;5.33;;;;;;;17.80;71.87;101835.64;1815712;79;21935;-84
2021/07/22 03:50:52;;;;;;;9.90;5.78;;;;;;;18.99;71.60;101833.77;1815485;77;21116;-85
2021/07/22 03:53:19;;;;;;;7.45;4.83;;;;;;;20.13;69.99;101829.05;1815774;79;20993;-84
2021/07/22 03:55:46;;;;;;;12.75;5.70;;;;;;;21.14;68.72;101826.92;1815825;79;21053;-84
2021/07/22 03:58:13;;;;;;;12.73;5.75;;;;;;;22.01;67.23;101827.55;1815744;79;21519;-84
2021/07/22 04:00:39;;;;;;;18.52;6.05;;;;;;;22.86;65.58;101831.45;1815867;79;21670;-84
2021/07/22 04:03:06;;;;;;;10.35;5.05;;;;;;;23.59;64.33;101830.72;1815845;76;21508;-84
2021/07/22 04:05:33;;;;;;;8.63;4.53;;;;;;;24.31;62.61;101826.23;1815829;79;21116;-84
2021/07/22 04:08:00;;;;;;;12.25;5.20;;;;;;;25.57;60.03;101799.80;1815918;79;20994;-84
2021/07/22 04:10:28;;;;;;;7.45;5.10;;;;;;;25.57;60.03;101799.80;1815928;78;21014;-84
2021/07/22 04:12:59;;;;;;;10.55;5.35;;;;;;;26.35;58.68;101823.72;1815765;79;21838;-85
2021/07/22 04:15:25;;;;;;;9.55;5.33;;;;;;;26.96;57.45;101828.05;1815723;79;21037;-84
2021/07/22 04:17:53;;;;;;;11.45;5.15;;;;;;;27.56;56.04;101820.63;1815818;78;21073;-84
2021/07/22 04:20:20;;;;;;;6.50;5.22;;;;;;;28.17;55.14;101817.89;1813403;78;21062;-85
2021/07/22 04:22:47;;;;;;;7.65;5.60;;;;;;;28.84;53.69;101825.64;1791559;77;21051;-87
2021/07/22 04:25:13;;;;;;;9.68;5.15;;;;;;;29.42;52.49;101818.16;1797439;77;21783;-88
2021/07/22 04:27:40;;;;;;;11.88;5.10;;;;;;;30.04;51.72;101824.86;1787649;79;20988;-87
2021/07/22 04:30:08;;;;;;;9.15;4.92;;;;;;;30.70;50.67;101819.94;1800477;79;20999;-87
2021/07/22 04:32:36;;;;;;;6.83;5.12;;;;;;;31.40;49.52;101823.23;1799854;79;21583;-88
2021/07/22 04:35:07;;;;;;;11.90;5.03;;;;;;;31.83;47.81;101814.47;1799931;79;21026;-88
2021/07/22 04:37:33;;;;;;;5.15;4.65;;;;;;;31.00;46.29;101820.47;1794047;79;22781;-89
2021/07/22 04:39:59;;;;;;;15.23;5.90;;;;;;;30.11;46.01;101822.80;1778053;79;21093;-89
2021/07/22 04:42:26;;;;;;;8.38;4.92;;;;;;;29.07;46.04;101818.05;1801168;79;21437;-90
2021/07/22 04:44:53;;;;;;;6.75;4.92;;;;;;;28.49;46.50;101814.13;1786862;78;21492;-90
2021/07/22 04:47:19;;;;;;;5.85;4.90;;;;;;;27.68;46.31;101821.59;1802901;79;21054;-88
2021/07/22 04:49:46;;;;;;;7.42;5.00;;;;;;;26.91;46.80;101820.53;1796697;79;21765;-91
2021/07/22 04:52:13;;;;;;;6.12;5.05;;;;;;;26.20;47.09;101822.70;1796938;77;21519;-88
2021/07/22 04:54:39;;;;;;;13.62;5.85;;;;;;;25.57;47.69;101818.20;1799247;79;20987;-89
2021/07/22 04:57:06;;;;;;;7.70;5.25;;;;;;;25.14;48.28;101814.97;1800360;79;21062;-89
2021/07/22 04:59:33;;;;;;;7.28;5.15;;;;;;;24.78;48.65;101825.95;1792935;79;21077;-90
2021/07/22 05:02:00;;;;;;;5.80;5.20;;;;;;;24.43;49.10;101821.52;1792905;78;22609;-88
2021/07/22 05:04:26;;;;;;;9.63;5.80;;;;;;;24.13;49.52;101822.00;1804228;79;21567;-89
2021/07/22 05:06:53;;;;;;;7.50;5.08;;;;;;;23.91;49.91;101823.63;1792807;79;21065;-88
2021/07/22 05:09:20;;;;;;;8.88;6.08;;;;;;;23.69;50.27;101823.00;1794646;79;21370;-88
2021/07/22 05:11:46;;;;;;;9.33;5.53;;;;;;;23.70;50.68;101818.51;1793959;79;21006;-87
2021/07/22 05:14:13;;;;;;;9.23;5.58;;;;;;;23.67;50.92;101815.41;1760130;78;21779;-86
2021/07/22 05:16:40;;;;;;;8.40;5.67;;;;;;;24.00;51.18;101809.17;1800086;79;21027;-87
2021/07/22 05:19:07;;;;;;;8.90;5.67;;;;;;;24.14;50.94;101812.56;1793102;79;21008;-87
2021/07/22 05:21:33;;;;;;;7.12;6.37;;;;;;;25.58;52.43;101804.25;1799183;79;21042;-87
2021/07/22 05:24:00;;;;;;;8.63;6.25;;;;;;;28.07;51.57;101799.70;1790743;79;21089;-86
2021/07/22 05:26:26;;;;;;;19.02;6.30;;;;;;;29.28;47.72;101798.80;1783276;79;21778;-87
2021/07/22 05:28:53;;;;;;;10.80;5.90;;;;;;;28.78;45.99;101799.64;1792506;79;21058;-87
2021/07/22 05:31:22;;;;;;;9.48;5.97;;;;;;;27.97;45.69;101800.47;1779801;78;21108;-87
2021/07/22 05:33:48;;;;;;;10.43;6.60;;;;;;;27.69;46.52;101797.21;1792257;77;21004;-87
2021/07/22 05:36:15;;;;;;;9.40;5.75;;;;;;;29.01;47.15;101792.53;1788087;78;21038;-87
2021/07/22 05:38:42;;;;;;;10.65;5.97;;;;;;;30.83;46.22;101789.52;1793817;79;21699;-88
2021/07/22 05:41:11;;;;;;;13.05;6.42;;;;;;;31.94;43.82;101788.97;1800207;79;21054;-87
2021/07/22 05:43:38;;;;;;;15.78;6.35;;;;;;;31.90;43.41;101787.36;1794231;79;21022;-87
2021/07/22 05:46:05;;;;;;;11.60;6.22;;;;;;;32.51;42.28;101790.74;1800198;79;21070;-87
2021/07/22 05:48:32;;;;;;;22.77;6.03;;;;;;;31.75;40.57;101809.39;1792296;79;21078;-87
2021/07/22 05:51:02;;;;;;;16.40;6.33;;;;;;;30.52;40.85;101808.48;1795986;79;22175;-87
2021/07/22 05:53:29;;;;;;;8.60;6.47;;;;;;;29.45;41.45;101807.66;1796087;79;20948;-87
2021/07/22 05:56:00;;;;;;;10.93;5.95;;;;;;;28.59;42.16;101805.29;1786010;78;21060;-87
2021/07/22 05:58:27;;;;;;;6.25;5.62;;;;;;;27.82;42.46;101812.61;1801541;79;21051;-87
2021/07/22 06:00:54;;;;;;;11.93;6.15;;;;;;;27.18;43.25;101808.58;1803490;79;21449;-87
2021/07/22 06:03:21;;;;;;;10.82;5.83;;;;;;;26.84;43.77;101808.58;1784185;77;21823;-87
2021/07/22 06:05:48;;;;;;;18.70;6.70;;;;;;;26.48;44.10;101803.16;1782903;78;21080;-87
2021/07/22 06:08:15;;;;;;;15.08;6.60;;;;;;;26.08;44.54;101807.69;1794152;79;20999;-86
2021/07/22 06:10:42;;;;;;;9.93;6.22;;;;;;;25.76;45.06;101798.94;1798648;77;21038;-87
2021/07/22 06:13:09;;;;;;;12.43;6.78;;;;;;;25.50;45.44;101799.48;1800081;79;21474;-86
2021/07/22 06:15:35;;;;;;;10.63;6.10;;;;;;;25.31;45.85;101794.93;1803101;79;22615;-87
2021/07/22 06:18:02;;;;;;;11.28;5.72;;;;;;;25.12;45.88;101803.80;1792981;79;21602;-86
2021/07/22 06:20:29;;;;;;;8.43;6.58;;;;;;;24.89;46.22;101805.55;1793577;78;21034;-86
2021/07/22 06:22:56;;;;;;;10.23;6.22;;;;;;;24.76;46.52;101801.73;1791256;79;20995;-86
2021/07/22 06:25:23;;;;;;;7.72;6.08;;;;;;;24.64;46.39;101799.25;1790432;77;21469;-87
2021/07/22 06:27:49;;;;;;;7.17;5.65;;;;;;;24.47;46.68;101797.27;1799060;79;21839;-87
2021/07/22 06:30:16;;;;;;;7.20;5.20;;;;;;;24.34;46.82;101801.48;1800128;79;21506;-87
2021/07/22 06:32:43;;;;;;;7.83;5.85;;;;;;;24.25;47.12;101798.50;1800002;78;20991;-87
2021/07/22 06:35:10;;;;;;;6.75;6.05;;;;;;;24.23;47.26;101799.41;1800312;79;21003;-87
2021/07/22 06:37:49;;;;;;;9.55;5.65;;;;;;;24.17;47.31;101796.83;1792354;79;21477;-87
2021/07/22 06:40:16;;;;;;;7.00;5.80;;;;;;;24.18;47.31;101799.96;1798053;79;22439;-87
2021/07/22 06:42:42;;;;;;;9.53;5.75;;;;;;;24.19;47.41;101801.72;1800385;79;20995;-88
2021/07/22 06:45:11;;;;;;;8.70;6.47;;;;;;;24.28;47.53;101800.23;1800807;79;21006;-87
2021/07/22 06:47:39;;;;;;;6.28;4.95;;;;;;;24.44;47.66;101799.09;1800186;79;21022;-87
2021/07/22 06:50:13;;;;;;;7.03;5.22;;;;;;;24.58;47.43;101796.20;1789208;77;21007;-87
2021/07/22 06:52:38;;;;;;;7.33;5.25;;;;;;;24.63;46.99;101801.06;1799331;79;21794;-87
2021/07/22 06:55:06;;;;;;;7.50;5.45;;;;;;;24.57;46.91;101799.83;1791448;79;20999;-87
2021/07/22 06:57:33;;;;;;;15.95;6.08;;;;;;;24.49;46.84;101791.40;1799870;79;21034;-87
2021/07/22 07:00:00;;;;;;;8.60;5.03;;;;;;;24.44;46.92;101799.56;1791005;78;21023;-87
2021/07/22 07:02:26;;;;;;;6.60;5.45;;;;;;;24.43;47.07;101801.80;1790311;79;20983;-87
2021/07/22 07:04:53;;;;;;;7.62;5.47;;;;;;;24.44;46.93;101803.13;1789777;79;22631;-87
2021/07/22 07:07:20;;;;;;;8.85;5.97;;;;;;;24.40;46.89;101801.84;1800185;79;21496;-87
2021/07/22 07:09:47;;;;;;;9.85;6.08;;;;;;;24.44;47.06;101799.56;1800556;79;21042;-87
2021/07/22 07:12:14;;;;;;;9.33;5.75;;;;;;;24.64;47.06;101797.90;1800464;79;20968;-87
2021/07/22 07:14:41;;;;;;;7.65;5.50;;;;;;;24.86;47.05;101797.08;1803882;78;21011;-87
2021/07/22 07:17:07;;;;;;;9.35;5.65;;;;;;;25.17;46.90;101796.50;1800423;79;21773;-87
2021/07/22 07:19:34;;;;;;;6.80;5.70;;;;;;;25.38;46.54;101789.39;1801398;79;21026;-86
2021/07/22 07:22:01;;;;;;;6.17;5.58;;;;;;;25.46;46.02;101793.27;1802264;79;21037;-87
2021/07/22 07:24:29;;;;;;;6.42;5.35;;;;;;;25.54;46.02;101797.16;1803328;79;21509;-87
2021/07/22 07:26:55;;;;;;;8.20;5.20;;;;;;;25.65;45.77;101794.23;1783430;79;20992;-86
2021/07/22 07:29:22;;;;;;;7.33;6.08;;;;;;;25.79;45.67;101794.38;1803595;79;21791;-87
2021/07/22 07:31:49;;;;;;;9.25;5.62;;;;;;;25.92;45.43;101793.67;1803350;79;21018;-87
2021/07/22 07:34:16;;;;;;;7.55;5.67;;;;;;;25.94;45.10;101799.02;1803583;79;21026;-87
2021/07/22 07:36:45;;;;;;;9.30;5.35;;;;;;;25.94;44.94;101797.22;1802979;79;21062;-86
2021/07/22 07:39:13;;;;;;;6.17;5.47;;;;;;;25.84;44.87;101798.77;1799874;77;21093;-87
2021/07/22 07:41:40;;;;;;;12.55;5.47;;;;;;;25.85;45.07;101797.86;1800007;79;21727;-87
2021/07/22 07:44:07;;;;;;;16.35;6.20;;;;;;;25.94;45.09;101793.61;1790368;79;21023;-87
2021/07/22 07:46:34;;;;;;;8.98;5.70;;;;;;;25.95;44.95;101797.63;1800200;79;21551;-87
2021/07/22 07:49:02;;;;;;;17.17;6.20;;;;;;;25.83;44.87;101795.19;1801612;79;21066;-87
2021/07/22 07:51:29;;;;;;;6.78;5.10;;;;;;;25.77;44.98;101795.30;1793059;79;21073;-87
2021/07/22 07:53:56;;;;;;;12.90;6.58;;;;;;;25.65;44.91;101792.42;1798991;77;22572;-87
2021/07/22 07:56:23;;;;;;;13.03;5.95;;;;;;;25.50;44.87;101796.80;1800298;79;21577;-87
2021/07/22 07:58:49;;;;;;;10.03;5.80;;;;;;;25.35;45.23;101798.87;1800401;79;20995;-87
2021/07/22 08:01:16;;;;;;;9.18;6.33;;;;;;;25.29;45.39;101789.56;1794007;79;21050;-87
2021/07/22 08:03:43;;;;;;;10.30;6.17;;;;;;;25.24;45.57;101788.77;1803410;78;21527;-87
2021/07/22 08:06:10;;;;;;;7.55;6.12;;;;;;;25.22;45.58;101790.56;1776728;77;22596;-87
2021/07/22 08:08:37;;;;;;;12.07;5.87;;;;;;;25.17;45.58;101787.98;1791681;78;21026;-87
2021/07/22 08:11:05;;;;;;;9.33;5.90;;;;;;;25.15;45.73;101787.56;1785452;78;21449;-87
2021/07/22 08:13:31;;;;;;;8.48;6.10;;;;;;;25.13;45.46;101784.00;1802845;79;21022;-87
2021/07/22 08:15:58;;;;;;;9.15;5.78;;;;;;;25.00;45.31;101784.69;1800305;79;21501;-87
2021/07/22 08:18:25;;;;;;;8.45;5.50;;;;;;;24.97;45.45;101776.69;1800367;79;22774;-88
2021/07/22 08:20:51;;;;;;;9.63;6.58;;;;;;;24.94;45.51;101776.73;1797976;79;21108;-87
2021/07/22 08:23:18;;;;;;;9.08;6.25;;;;;;;25.05;45.54;101774.73;1800450;79;21566;-87
2021/07/22 08:25:46;;;;;;;11.90;6.78;;;;;;;25.24;45.49;101773.94;1803327;79;21027;-87
2021/07/22 08:28:13;;;;;;;6.97;6.28;;;;;;;25.44;45.63;101767.28;1803501;79;21565;-87
2021/07/22 08:30:40;;;;;;;8.75;5.50;;;;;;;25.66;45.41;101769.94;1803462;78;21729;-87
2021/07/22 08:33:07;;;;;;;9.48;8.15;;;;;;;25.84;44.75;101768.63;1803422;77;21006;-87
2021/07/22 08:35:34;;;;;;;9.40;6.37;;;;;;;25.90;44.36;101767.16;1802797;78;21034;-87
2021/07/22 08:38:00;;;;;;;8.55;4.95;;;;;;;26.00;44.36;101767.88;1805022;79;21508;-86
2021/07/22 08:40:27;;;;;;;8.95;5.87;;;;;;;26.24;44.27;101762.80;1800554;79;21516;-87
2021/07/22 08:42:57;;;;;;;19.87;7.00;;;;;;;26.40;44.10;101765.55;1800516;79;21739;-87
2021/07/22 08:45:23;;;;;;;9.15;6.03;;;;;;;26.44;43.72;101765.02;1778592;79;21077;-87
2021/07/22 08:47:50;;;;;;;9.80;5.75;;;;;;;26.47;43.59;101760.42;1800225;79;20971;-87
2021/07/22 08:50:18;;;;;;;15.72;6.25;;;;;;;26.53;43.40;101761.61;1790926;79;20944;-87
2021/07/22 08:52:44;;;;;;;9.30;6.10;;;;;;;26.60;43.31;101761.04;1797614;79;21485;-87
2021/07/22 08:55:11;;;;;;;9.00;6.90;;;;;;;26.78;43.16;101755.59;1783366;79;21747;-87
2021/07/22 08:57:39;;;;;;;7.72;6.33;;;;;;;26.97;42.99;101755.98;1788352;78;21006;-87
2021/07/22 09:00:07;;;;;;;7.25;6.05;;;;;;;27.18;42.87;101756.31;1792451;79;21031;-87
2021/07/22 09:02:34;;;;;;;11.25;5.78;;;;;;;27.42;42.56;101759.69;1789116;78;21053;-87
2021/07/22 09:05:07;;;;;;;17.23;6.53;;;;;;;27.60;42.12;101759.62;1783875;79;21074;-87
2021/07/22 09:07:34;;;;;;;17.05;6.95;;;;;;;27.69;41.84;101761.17;1799561;79;22217;-88
2021/07/22 09:10:12;;;;;;;11.12;6.37;;;;;;;27.75;41.54;101762.80;1797901;79;20979;-87
2021/07/22 09:12:48;;;;;;;8.83;5.72;;;;;;;27.53;41.22;101754.84;1791351;79;21042;-88
2021/07/22 09:15:32;;;;;;;6.97;6.20;;;;;;;27.20;40.98;101759.41;1798490;79;21090;-87
2021/07/22 09:17:58;;;;;;;8.05;6.92;;;;;;;26.90;41.10;101753.93;1800388;79;21576;-87
2021/07/22 09:20:32;;;;;;;10.88;6.28;;;;;;;26.66;41.31;101756.82;1800699;79;22398;-87
2021/07/22 09:23:00;;;;;;;8.55;6.05;;;;;;;26.52;41.38;101753.11;1800526;79;21007;-88
2021/07/22 09:25:44;;;;;;;7.85;5.95;;;;;;;26.36;41.25;101752.59;1793823;79;21077;-87
2021/07/22 09:28:21;;;;;;;9.60;5.65;;;;;;;26.27;41.37;101758.21;1798085;79;21496;-87
2021/07/22 09:30:59;;;;;;;10.80;5.20;;;;;;;26.26;41.42;101751.50;1799976;79;21071;-87
2021/07/22 09:33:44;;;;;;;9.93;5.97;;;;;;;26.32;41.55;101748.67;1800449;79;22627;-87
2021/07/22 09:36:31;;;;;;;7.53;5.97;;;;;;;26.37;41.37;101746.28;1793972;79;21006;-85
2021/07/22 09:39:29;;;;;;;9.63;6.05;;;;;;;26.32;41.33;101745.50;1798418;79;21099;-86
2021/07/22 09:42:01;;;;;;;10.45;5.72;;;;;;;26.22;41.17;101747.11;1800335;79;21096;-86
2021/07/22 09:44:39;;;;;;;6.20;5.10;;;;;;;26.15;41.40;101737.82;1796114;79;21120;-87
2021/07/22 09:47:07;;;;;;;7.20;5.28;;;;;;;26.16;41.35;101740.92;1800457;78;22630;-86
2021/07/22 09:49:41;;;;;;;6.53;5.53;;;;;;;26.11;41.40;101737.47;1798968;79;21473;-87
2021/07/22 09:52:20;;;;;;;;;;;;;;;26.09;41.26;101742.02;1806735;78;21003;-87
2021/07/22 09:54:47;;;;;;;12.50;5.92;;;;;;;26.15;41.10;101745.91;1795820;78;20568;-86
2021/07/22 09:57:17;;;;;;;10.70;5.70;;;;;;;26.27;41.22;101747.41;1792264;79;21508;-84
2021/07/22 09:59:45;;;;;;;6.87;5.50;;;;;;;26.33;40.94;101743.23;1793388;79;21796;-87
2021/07/22 10:02:24;;;;;;;5.78;5.20;;;;;;;26.44;41.07;101737.55;1801746;79;21042;-87
2021/07/22 10:05:01;;;;;;;15.55;5.80;;;;;;;26.66;40.63;101743.79;1791441;77;20987;-85
2021/07/22 10:07:28;;;;;;;6.28;5.15;;;;;;;26.75;40.27;101743.55;1801516;77;21418;-86
2021/07/22 10:09:57;;;;;;;7.60;5.35;;;;;;;26.71;40.12;101740.48;1800549;79;21056;-86
2021/07/22 10:12:24;;;;;;;5.30;4.80;;;;;;;26.79;40.32;101736.25;1807385;79;21777;-86
2021/07/22 10:14:57;;;;;;;5.37;4.50;;;;;;;26.94;39.94;101736.70;1800115;79;21042;-86
2021/07/22 10:17:35;;;;;;;7.03;5.62;;;;;;;27.18;39.65;101737.39;1801479;79;21031;-86
2021/07/22 10:20:07;;;;;;;9.68;5.70;;;;;;;27.25;39.39;101730.89;1800957;77;21553;-86
2021/07/22 10:22:34;;;;;;;6.08;4.80;;;;;;;27.22;39.26;101729.17;1800226;79;21031;-85
2021/07/22 10:25:02;;;;;;;9.83;5.35;;;;;;;27.27;39.23;101728.61;1794365;79;21884;-86
2021/07/22 10:27:28;;;;;;;8.20;5.90;;;;;;;27.27;39.14;101734.02;1800269;79;20941;-86
2021/07/22 10:29:57;;;;;;;5.30;4.80;;;;;;;27.23;39.05;101723.29;1791393;79;21496;-86
2021/07/22 10:32:26;;;;;;;6.35;4.75;;;;;;;27.14;38.95;101737.94;1800277;79;20995;-86
2021/07/22 10:34:53;;;;;;;4.95;4.45;;;;;;;27.00;38.37;101728.89;1806641;79;21026;-86
2021/07/22 10:37:20;;;;;;;5.00;4.60;;;;;;;26.98;38.41;101728.05;1789911;79;22521;-86
2021/07/22 10:40:09;;;;;;;4.90;4.37;;;;;;;27.03;38.21;101723.85;1799777;79;21022;-86
2021/07/22 10:42:49;;;;;;;8.95;5.15;;;;;;;26.99;38.35;101725.78;1796917;79;21003;-85
2021/07/22 10:45:23;;;;;;;17.40;5.35;;;;;;;27.07;38.50;101726.91;1795119;79;21275;-86
2021/07/22 10:48:06;;;;;;;6.40;4.53;;;;;;;27.17;38.69;101724.83;1794059;79;21054;-86
2021/07/22 10:50:50;;;;;;;5.78;4.90;;;;;;;27.19;38.31;101715.73;1797652;79;22594;-86
2021/07/22 10:53:16;;;;;;;7.53;5.05;;;;;;;27.19;38.53;101717.56;1799211;79;20987;-87
2021/07/22 10:55:47;;;;;;;7.62;5.00;;;;;;;27.23;38.67;101720.59;1778287;79;21023;-87
2021/07/22 10:58:33;;;;;;;7.42;5.05;;;;;;;27.29;38.77;101714.58;1800321;79;21473;-87
2021/07/22 11:01:03;;;;;;;6.42;5.05;;;;;;;27.28;38.54;101711.44;1800132;79;21058;-86
2021/07/22 11:03:47;;;;;;;8.28;5.12;;;;;;;27.27;38.41;101711.48;1799896;79;21764;-86
2021/07/22 11:06:14;;;;;;;9.75;5.05;;;;;;;27.25;38.39;101711.52;1801304;79;21023;-86
2021/07/22 11:08:42;;;;;;;5.97;4.92;;;;;;;27.29;38.45;101705.13;1781972;79;20999;-86
2021/07/22 11:11:13;;;;;;;6.92;5.03;;;;;;;27.39;38.23;101706.20;1798677;79;21422;-86
2021/07/22 11:13:47;;;;;;;7.95;4.80;;;;;;;27.50;38.03;101704.05;1800055;79;21445;-87
2021/07/22 11:16:28;;;;;;;9.00;4.95;;;;;;;27.72;38.09;101696.13;1790513;79;21865;-85
2021/07/22 11:18:58;;;;;;;6.33;4.72;;;;;;;27.98;37.70;101702.57;1800133;79;21058;-87
2021/07/22 11:21:29;;;;;;;5.53;4.60;;;;;;;28.13;37.33;101691.23;1800369;79;21082;-86
2021/07/22 11:24:05;;;;;;;6.35;4.80;;;;;;;28.18;37.25;101695.16;1800279;79;21054;-87
2021/07/22 11:26:36;;;;;;;5.55;4.40;;;;;;;28.11;36.41;101691.28;1800546;79;21062;-86